sensor_id;sensor_type;location;lat;lon;timestamp;temperature;humidity
34406;DHT22;20658;45.630;8.886;2022-10-22T00:01:54;16.00;99.90
34406;DHT22;20658;45.630;8.886;2022-10-22T00:04:27;16.00;99.90
34406;DHT22;20658;45.630;8.886;2022-10-22T00:07:00;16.10;99.90
34406;DHT22;20658;45.630;8.886;2022-10-22T00:09:34;16.00;99.90
34406;DHT22;20658;45.630;8.886;2022-10-22T00:12:07;16.00;99.90
34406;DHT22;20658;45.630;8.886;2022-10-22T00:14:41;16.00;99.90
34406;DHT22;20658;45.630;8.886;2022-10-22T00:17:17;16.10;99.90
34406;DHT22;20658;45.630;8.886;2022-10-22T00:19:50;16.10;99.90
34406;DHT22;20658;45.630;8.886;2022-10-22T00:22:24;16.10;99.90
34406;DHT22;20658;45.630;8.886;2022-10-22T00:24:57;16.10;99.90
34406;DHT22;20658;45.630;8.886;2022-10-22T00:27:30;16.10;99.90
34406;DHT22;20658;45.630;8.886;2022-10-22T00:30:04;16.10;99.90
34406;DHT22;20658;45.630;8.886;2022-10-22T00:32:40;16.10;99.90
34406;DHT22;20658;45.630;8.886;2022-10-22T00:35:13;16.10;99.90
34406;DHT22;20658;45.630;8.886;2022-10-22T00:37:46;16.10;99.90
34406;DHT22;20658;45.630;8.886;2022-10-22T00:40:20;16.10;99.90
34406;DHT22;20658;45.630;8.886;2022-10-22T00:42:53;16.40;99.90
34406;DHT22;20658;45.630;8.886;2022-10-22T00:45:27;16.10;99.90
34406;DHT22;20658;45.630;8.886;2022-10-22T00:48:04;16.10;99.90
34406;DHT22;20658;45.630;8.886;2022-10-22T00:50:41;16.10;99.90
34406;DHT22;20658;45.630;8.886;2022-10-22T00:53:19;16.10;99.90
34406;DHT22;20658;45.630;8.886;2022-10-22T00:55:55;16.10;99.90
34406;DHT22;20658;45.630;8.886;2022-10-22T00:58:30;16.20;99.90
34406;DHT22;20658;45.630;8.886;2022-10-22T01:01:06;16.10;99.90
34406;DHT22;20658;45.630;8.886;2022-10-22T01:03:42;16.10;99.90
34406;DHT22;20658;45.630;8.886;2022-10-22T01:06:20;16.10;99.90
34406;DHT22;20658;45.630;8.886;2022-10-22T01:09:03;16.10;99.90
34406;DHT22;20658;45.630;8.886;2022-10-22T01:11:51;16.10;99.90
34406;DHT22;20658;45.630;8.886;2022-10-22T01:14:32;16.10;99.90
34406;DHT22;20658;45.630;8.886;2022-10-22T01:17:11;16.20;99.90
34406;DHT22;20658;45.630;8.886;2022-10-22T01:19:58;16.20;99.90
34406;DHT22;20658;45.630;8.886;2022-10-22T01:22:40;16.30;99.90
34406;DHT22;20658;45.630;8.886;2022-10-22T01:25:19;16.20;99.90
34406;DHT22;20658;45.630;8.886;2022-10-22T01:28:05;16.20;99.90
34406;DHT22;20658;45.630;8.886;2022-10-22T01:30:48;16.20;99.90
34406;DHT22;20658;45.630;8.886;2022-10-22T01:33:25;16.20;99.90
34406;DHT22;20658;45.630;8.886;2022-10-22T01:35:55;16.20;99.90
34406;DHT22;20658;45.630;8.886;2022-10-22T01:38:31;16.10;99.90
34406;DHT22;20658;45.630;8.886;2022-10-22T01:41:06;16.10;99.90
34406;DHT22;20658;45.630;8.886;2022-10-22T01:43:39;16.10;99.90
34406;DHT22;20658;45.630;8.886;2022-10-22T01:46:22;16.20;99.90
34406;DHT22;20658;45.630;8.886;2022-10-22T01:49:09;16.20;99.90
34406;DHT22;20658;45.630;8.886;2022-10-22T01:51:53;16.20;99.90
34406;DHT22;20658;45.630;8.886;2022-10-22T01:54:35;16.20;99.90
34406;DHT22;20658;45.630;8.886;2022-10-22T01:57:18;16.20;99.90
34406;DHT22;20658;45.630;8.886;2022-10-22T02:00:00;16.30;99.90
34406;DHT22;20658;45.630;8.886;2022-10-22T02:02:42;16.20;99.90
34406;DHT22;20658;45.630;8.886;2022-10-22T02:05:16;16.30;99.90
34406;DHT22;20658;45.630;8.886;2022-10-22T02:07:55;16.20;99.90
34406;DHT22;20658;45.630;8.886;2022-10-22T02:10:31;16.20;99.90
34406;DHT22;20658;45.630;8.886;2022-10-22T02:13:07;16.20;99.90
34406;DHT22;20658;45.630;8.886;2022-10-22T02:15:43;16.10;99.90
34406;DHT22;20658;45.630;8.886;2022-10-22T02:18:22;16.20;99.90
34406;DHT22;20658;45.630;8.886;2022-10-22T02:20:59;16.10;99.90
34406;DHT22;20658;45.630;8.886;2022-10-22T02:23:33;16.10;99.90
34406;DHT22;20658;45.630;8.886;2022-10-22T02:26:15;16.10;99.90
34406;DHT22;20658;45.630;8.886;2022-10-22T02:28:57;16.00;99.90
34406;DHT22;20658;45.630;8.886;2022-10-22T02:31:36;16.00;99.90
34406;DHT22;20658;45.630;8.886;2022-10-22T02:34:15;16.00;99.90
34406;DHT22;20658;45.630;8.886;2022-10-22T02:36:47;16.00;99.90
34406;DHT22;20658;45.630;8.886;2022-10-22T02:39:22;16.00;99.90
34406;DHT22;20658;45.630;8.886;2022-10-22T02:41:55;16.00;99.90
34406;DHT22;20658;45.630;8.886;2022-10-22T02:44:29;15.90;99.90
34406;DHT22;20658;45.630;8.886;2022-10-22T02:47:03;16.20;99.90
34406;DHT22;20658;45.630;8.886;2022-10-22T02:49:37;15.90;99.90
34406;DHT22;20658;45.630;8.886;2022-10-22T02:52:11;15.90;99.90
34406;DHT22;20658;45.630;8.886;2022-10-22T02:54:44;15.90;99.90
34406;DHT22;20658;45.630;8.886;2022-10-22T02:57:17;16.20;99.90
34406;DHT22;20658;45.630;8.886;2022-10-22T02:59:51;15.90;99.90
34406;DHT22;20658;45.630;8.886;2022-10-22T03:02:24;15.90;99.90
34406;DHT22;20658;45.630;8.886;2022-10-22T03:04:59;15.90;99.90
34406;DHT22;20658;45.630;8.886;2022-10-22T03:07:32;15.90;99.90
34406;DHT22;20658;45.630;8.886;2022-10-22T03:10:07;15.90;99.90
34406;DHT22;20658;45.630;8.886;2022-10-22T03:12:41;15.90;99.90
34406;DHT22;20658;45.630;8.886;2022-10-22T03:15:14;15.90;99.90
34406;DHT22;20658;45.630;8.886;2022-10-22T03:17:48;15.90;99.90
34406;DHT22;20658;45.630;8.886;2022-10-22T03:20:22;15.90;99.90
34406;DHT22;20658;45.630;8.886;2022-10-22T03:22:56;16.20;99.90
34406;DHT22;20658;45.630;8.886;2022-10-22T03:25:30;15.80;99.90
34406;DHT22;20658;45.630;8.886;2022-10-22T03:28:07;15.80;99.90
34406;DHT22;20658;45.630;8.886;2022-10-22T03:30:42;15.80;99.90
34406;DHT22;20658;45.630;8.886;2022-10-22T03:33:16;15.80;99.90
34406;DHT22;20658;45.630;8.886;2022-10-22T03:35:50;16.00;99.90
34406;DHT22;20658;45.630;8.886;2022-10-22T03:38:24;15.80;99.90
34406;DHT22;20658;45.630;8.886;2022-10-22T03:40:58;15.80;99.90
34406;DHT22;20658;45.630;8.886;2022-10-22T03:43:33;15.80;99.90
34406;DHT22;20658;45.630;8.886;2022-10-22T03:46:06;15.80;99.90
34406;DHT22;20658;45.630;8.886;2022-10-22T03:48:40;15.80;99.90
34406;DHT22;20658;45.630;8.886;2022-10-22T03:51:14;16.20;99.90
34406;DHT22;20658;45.630;8.886;2022-10-22T03:53:48;15.80;99.90
34406;DHT22;20658;45.630;8.886;2022-10-22T03:56:21;15.80;99.90
34406;DHT22;20658;45.630;8.886;2022-10-22T03:58:56;15.70;99.90
34406;DHT22;20658;45.630;8.886;2022-10-22T04:01:30;15.70;99.90
34406;DHT22;20658;45.630;8.886;2022-10-22T04:04:03;15.70;99.90
34406;DHT22;20658;45.630;8.886;2022-10-22T04:06:38;15.70;99.90
34406;DHT22;20658;45.630;8.886;2022-10-22T04:09:11;15.90;99.90
34406;DHT22;20658;45.630;8.886;2022-10-22T04:11:45;15.70;99.90
34406;DHT22;20658;45.630;8.886;2022-10-22T04:14:18;15.70;99.90
34406;DHT22;20658;45.630;8.886;2022-10-22T04:16:52;15.70;99.90
34406;DHT22;20658;45.630;8.886;2022-10-22T04:19:20;15.70;99.90
34406;DHT22;20658;45.630;8.886;2022-10-22T04:21:56;16.00;99.90
34406;DHT22;20658;45.630;8.886;2022-10-22T04:24:31;15.70;99.90
34406;DHT22;20658;45.630;8.886;2022-10-22T04:27:04;15.70;99.90
34406;DHT22;20658;45.630;8.886;2022-10-22T04:29:33;15.70;99.90
34406;DHT22;20658;45.630;8.886;2022-10-22T04:32:06;15.70;99.90
34406;DHT22;20658;45.630;8.886;2022-10-22T04:34:39;15.70;99.90
34406;DHT22;20658;45.630;8.886;2022-10-22T04:37:14;15.80;99.90
34406;DHT22;20658;45.630;8.886;2022-10-22T04:39:48;15.70;99.90
34406;DHT22;20658;45.630;8.886;2022-10-22T04:42:21;15.70;99.90
34406;DHT22;20658;45.630;8.886;2022-10-22T04:44:54;15.80;99.90
34406;DHT22;20658;45.630;8.886;2022-10-22T04:47:28;15.70;99.90
34406;DHT22;20658;45.630;8.886;2022-10-22T04:50:01;15.70;99.90
34406;DHT22;20658;45.630;8.886;2022-10-22T04:52:36;15.70;99.90
34406;DHT22;20658;45.630;8.886;2022-10-22T04:55:09;15.70;99.90
34406;DHT22;20658;45.630;8.886;2022-10-22T04:57:43;15.70;99.90
34406;DHT22;20658;45.630;8.886;2022-10-22T05:00:16;15.70;99.90
34406;DHT22;20658;45.630;8.886;2022-10-22T05:02:50;15.70;99.90
34406;DHT22;20658;45.630;8.886;2022-10-22T05:05:24;15.90;99.90
34406;DHT22;20658;45.630;8.886;2022-10-22T05:07:59;15.70;99.90
34406;DHT22;20658;45.630;8.886;2022-10-22T05:10:32;15.70;99.90
34406;DHT22;20658;45.630;8.886;2022-10-22T05:13:05;15.70;99.90
34406;DHT22;20658;45.630;8.886;2022-10-22T05:15:39;15.70;99.90
34406;DHT22;20658;45.630;8.886;2022-10-22T05:18:12;15.70;99.90
34406;DHT22;20658;45.630;8.886;2022-10-22T05:20:46;15.70;99.90
34406;DHT22;20658;45.630;8.886;2022-10-22T05:23:21;15.70;99.90
34406;DHT22;20658;45.630;8.886;2022-10-22T05:25:54;15.70;99.90
34406;DHT22;20658;45.630;8.886;2022-10-22T05:28:28;15.70;99.90
34406;DHT22;20658;45.630;8.886;2022-10-22T05:31:02;15.70;99.90
34406;DHT22;20658;45.630;8.886;2022-10-22T05:33:37;15.70;99.90
34406;DHT22;20658;45.630;8.886;2022-10-22T05:36:12;15.70;99.90
34406;DHT22;20658;45.630;8.886;2022-10-22T05:38:48;15.70;99.90
34406;DHT22;20658;45.630;8.886;2022-10-22T05:41:24;15.70;99.90
34406;DHT22;20658;45.630;8.886;2022-10-22T05:44:00;15.70;99.90
34406;DHT22;20658;45.630;8.886;2022-10-22T05:46:35;15.80;99.90
34406;DHT22;20658;45.630;8.886;2022-10-22T05:49:12;15.80;99.90
34406;DHT22;20658;45.630;8.886;2022-10-22T05:51:46;15.70;99.90
34406;DHT22;20658;45.630;8.886;2022-10-22T05:54:21;15.80;99.90
34406;DHT22;20658;45.630;8.886;2022-10-22T05:56:54;15.80;99.90
34406;DHT22;20658;45.630;8.886;2022-10-22T05:59:28;15.80;99.90
34406;DHT22;20658;45.630;8.886;2022-10-22T06:02:01;15.80;99.90
34406;DHT22;20658;45.630;8.886;2022-10-22T06:04:34;15.80;99.90
34406;DHT22;20658;45.630;8.886;2022-10-22T06:07:10;15.80;99.90
34406;DHT22;20658;45.630;8.886;2022-10-22T06:09:48;15.80;99.90
34406;DHT22;20658;45.630;8.886;2022-10-22T06:12:22;15.80;99.90
34406;DHT22;20658;45.630;8.886;2022-10-22T06:14:55;15.80;99.90
34406;DHT22;20658;45.630;8.886;2022-10-22T06:17:29;15.80;99.90
34406;DHT22;20658;45.630;8.886;2022-10-22T06:19:57;15.80;99.90
34406;DHT22;20658;45.630;8.886;2022-10-22T06:22:31;15.80;99.90
34406;DHT22;20658;45.630;8.886;2022-10-22T06:25:07;15.80;99.90
34406;DHT22;20658;45.630;8.886;2022-10-22T06:27:41;15.80;99.90
34406;DHT22;20658;45.630;8.886;2022-10-22T06:30:14;15.80;99.90
34406;DHT22;20658;45.630;8.886;2022-10-22T06:32:48;15.80;99.90
34406;DHT22;20658;45.630;8.886;2022-10-22T06:35:21;15.80;99.90
34406;DHT22;20658;45.630;8.886;2022-10-22T06:37:55;15.80;99.90
34406;DHT22;20658;45.630;8.886;2022-10-22T06:40:29;15.80;99.90
34406;DHT22;20658;45.630;8.886;2022-10-22T06:43:03;15.80;99.90
34406;DHT22;20658;45.630;8.886;2022-10-22T06:45:36;15.90;99.90
34406;DHT22;20658;45.630;8.886;2022-10-22T06:48:10;15.90;99.90
34406;DHT22;20658;45.630;8.886;2022-10-22T06:50:43;16.00;99.90
34406;DHT22;20658;45.630;8.886;2022-10-22T06:53:17;16.00;99.90
34406;DHT22;20658;45.630;8.886;2022-10-22T06:55:51;16.00;99.90
34406;DHT22;20658;45.630;8.886;2022-10-22T06:58:25;16.30;99.90
34406;DHT22;20658;45.630;8.886;2022-10-22T07:01:00;16.00;99.90
34406;DHT22;20658;45.630;8.886;2022-10-22T07:03:34;16.00;99.90
34406;DHT22;20658;45.630;8.886;2022-10-22T07:06:10;16.50;99.90
34406;DHT22;20658;45.630;8.886;2022-10-22T07:08:44;16.10;99.90
34406;DHT22;20658;45.630;8.886;2022-10-22T07:11:20;16.10;99.90
34406;DHT22;20658;45.630;8.886;2022-10-22T07:13:57;16.10;99.90
34406;DHT22;20658;45.630;8.886;2022-10-22T07:16:31;16.20;99.90
34406;DHT22;20658;45.630;8.886;2022-10-22T07:19:05;16.20;99.90
34406;DHT22;20658;45.630;8.886;2022-10-22T07:21:38;16.30;99.90
34406;DHT22;20658;45.630;8.886;2022-10-22T07:24:14;16.30;99.90
34406;DHT22;20658;45.630;8.886;2022-10-22T07:26:49;16.30;99.90
34406;DHT22;20658;45.630;8.886;2022-10-22T07:29:20;16.30;99.90
34406;DHT22;20658;45.630;8.886;2022-10-22T07:31:54;16.40;99.90
34406;DHT22;20658;45.630;8.886;2022-10-22T07:34:27;16.50;99.90
34406;DHT22;20658;45.630;8.886;2022-10-22T07:37:02;16.60;99.90
34406;DHT22;20658;45.630;8.886;2022-10-22T07:39:35;16.70;99.90
34406;DHT22;20658;45.630;8.886;2022-10-22T07:42:13;16.70;99.90
34406;DHT22;20658;45.630;8.886;2022-10-22T07:44:41;16.80;99.90
34406;DHT22;20658;45.630;8.886;2022-10-22T07:47:15;17.00;99.90
34406;DHT22;20658;45.630;8.886;2022-10-22T07:49:48;17.20;99.90
34406;DHT22;20658;45.630;8.886;2022-10-22T07:52:21;17.30;99.90
34406;DHT22;20658;45.630;8.886;2022-10-22T07:54:55;17.40;99.90
34406;DHT22;20658;45.630;8.886;2022-10-22T07:57:29;17.50;99.90
34406;DHT22;20658;45.630;8.886;2022-10-22T08:00:03;17.50;99.90
34406;DHT22;20658;45.630;8.886;2022-10-22T08:02:37;17.60;99.90
34406;DHT22;20658;45.630;8.886;2022-10-22T08:05:11;17.70;99.90
34406;DHT22;20658;45.630;8.886;2022-10-22T08:07:45;17.80;99.90
34406;DHT22;20658;45.630;8.886;2022-10-22T08:10:18;17.90;99.90
34406;DHT22;20658;45.630;8.886;2022-10-22T08:12:53;17.90;99.90
34406;DHT22;20658;45.630;8.886;2022-10-22T08:15:27;18.00;99.90
34406;DHT22;20658;45.630;8.886;2022-10-22T08:18:00;18.00;99.90
34406;DHT22;20658;45.630;8.886;2022-10-22T08:20:33;18.00;99.90
34406;DHT22;20658;45.630;8.886;2022-10-22T08:23:07;18.10;99.90
34406;DHT22;20658;45.630;8.886;2022-10-22T08:25:41;18.20;99.90
34406;DHT22;20658;45.630;8.886;2022-10-22T08:28:11;18.30;99.90
34406;DHT22;20658;45.630;8.886;2022-10-22T08:30:44;18.50;99.90
34406;DHT22;20658;45.630;8.886;2022-10-22T08:33:14;18.60;99.90
34406;DHT22;20658;45.630;8.886;2022-10-22T08:35:47;18.80;99.90
34406;DHT22;20658;45.630;8.886;2022-10-22T08:38:21;18.80;99.90
34406;DHT22;20658;45.630;8.886;2022-10-22T08:40:59;18.90;99.90
34406;DHT22;20658;45.630;8.886;2022-10-22T08:43:45;19.00;99.90
34406;DHT22;20658;45.630;8.886;2022-10-22T08:46:56;19.20;99.90
34406;DHT22;20658;45.630;8.886;2022-10-22T08:49:46;19.30;99.90
34406;DHT22;20658;45.630;8.886;2022-10-22T08:52:21;19.40;99.50
34406;DHT22;20658;45.630;8.886;2022-10-22T08:54:56;19.50;99.20
34406;DHT22;20658;45.630;8.886;2022-10-22T08:57:48;19.50;98.20
34406;DHT22;20658;45.630;8.886;2022-10-22T09:00:30;19.60;98.30
34406;DHT22;20658;45.630;8.886;2022-10-22T09:03:24;19.60;98.00
34406;DHT22;20658;45.630;8.886;2022-10-22T09:06:08;19.50;97.70
34406;DHT22;20658;45.630;8.886;2022-10-22T09:08:44;19.60;97.80
34406;DHT22;20658;45.630;8.886;2022-10-22T09:11:25;19.60;97.50
34406;DHT22;20658;45.630;8.886;2022-10-22T09:14:00;19.60;97.10
34406;DHT22;20658;45.630;8.886;2022-10-22T09:16:42;19.70;96.70
34406;DHT22;20658;45.630;8.886;2022-10-22T09:19:33;19.80;96.70
34406;DHT22;20658;45.630;8.886;2022-10-22T09:22:19;19.90;95.60
34406;DHT22;20658;45.630;8.886;2022-10-22T09:24:58;20.00;95.20
34406;DHT22;20658;45.630;8.886;2022-10-22T09:27:34;20.10;94.70
34406;DHT22;20658;45.630;8.886;2022-10-22T09:30:12;20.20;94.70
34406;DHT22;20658;45.630;8.886;2022-10-22T09:32:45;20.20;94.90
34406;DHT22;20658;45.630;8.886;2022-10-22T09:35:21;20.30;94.00
34406;DHT22;20658;45.630;8.886;2022-10-22T09:37:56;20.40;93.70
34406;DHT22;20658;45.630;8.886;2022-10-22T09:40:29;20.60;93.30
34406;DHT22;20658;45.630;8.886;2022-10-22T09:43:02;20.40;92.40
34406;DHT22;20658;45.630;8.886;2022-10-22T09:45:31;20.60;92.40
34406;DHT22;20658;45.630;8.886;2022-10-22T09:48:10;20.90;92.00
34406;DHT22;20658;45.630;8.886;2022-10-22T09:50:48;21.00;91.50
34406;DHT22;20658;45.630;8.886;2022-10-22T09:53:25;21.10;90.30
34406;DHT22;20658;45.630;8.886;2022-10-22T09:56:06;21.20;90.60
34406;DHT22;20658;45.630;8.886;2022-10-22T09:58:42;21.30;89.90
34406;DHT22;20658;45.630;8.886;2022-10-22T10:01:24;21.20;89.70
34406;DHT22;20658;45.630;8.886;2022-10-22T10:04:04;21.40;89.10
34406;DHT22;20658;45.630;8.886;2022-10-22T10:06:40;21.40;89.00
34406;DHT22;20658;45.630;8.886;2022-10-22T10:09:14;21.40;88.60
34406;DHT22;20658;45.630;8.886;2022-10-22T10:11:56;21.40;88.60
34406;DHT22;20658;45.630;8.886;2022-10-22T10:14:38;21.40;88.30
34406;DHT22;20658;45.630;8.886;2022-10-22T10:17:23;21.30;88.10
34406;DHT22;20658;45.630;8.886;2022-10-22T10:20:14;21.00;89.20
34406;DHT22;20658;45.630;8.886;2022-10-22T10:23:02;20.80;89.80
34406;DHT22;20658;45.630;8.886;2022-10-22T10:25:47;20.50;90.70
34406;DHT22;20658;45.630;8.886;2022-10-22T10:28:39;20.30;91.70
34406;DHT22;20658;45.630;8.886;2022-10-22T10:31:20;20.30;92.70
34406;DHT22;20658;45.630;8.886;2022-10-22T10:34:09;20.20;93.60
34406;DHT22;20658;45.630;8.886;2022-10-22T10:36:53;20.30;94.00
34406;DHT22;20658;45.630;8.886;2022-10-22T10:39:38;20.40;93.20
34406;DHT22;20658;45.630;8.886;2022-10-22T10:42:20;20.40;92.40
34406;DHT22;20658;45.630;8.886;2022-10-22T10:45:05;20.40;92.70
34406;DHT22;20658;45.630;8.886;2022-10-22T10:48:06;20.40;93.10
34406;DHT22;20658;45.630;8.886;2022-10-22T10:51:02;20.50;92.60
34406;DHT22;20658;45.630;8.886;2022-10-22T10:53:46;20.50;92.30
34406;DHT22;20658;45.630;8.886;2022-10-22T10:56:38;20.60;91.60
34406;DHT22;20658;45.630;8.886;2022-10-22T10:59:21;20.60;91.20
34406;DHT22;20658;45.630;8.886;2022-10-22T11:02:17;20.60;90.80
34406;DHT22;20658;45.630;8.886;2022-10-22T11:05:25;20.80;90.70
34406;DHT22;20658;45.630;8.886;2022-10-22T11:08:06;21.00;90.20
34406;DHT22;20658;45.630;8.886;2022-10-22T11:10:47;21.30;89.60
34406;DHT22;20658;45.630;8.886;2022-10-22T11:13:27;21.10;88.40
34406;DHT22;20658;45.630;8.886;2022-10-22T11:16:08;21.40;89.00
34406;DHT22;20658;45.630;8.886;2022-10-22T11:18:48;21.90;86.90
34406;DHT22;20658;45.630;8.886;2022-10-22T11:21:30;22.20;85.50
34406;DHT22;20658;45.630;8.886;2022-10-22T11:24:11;22.40;82.90
34406;DHT22;20658;45.630;8.886;2022-10-22T11:26:53;22.30;82.70
34406;DHT22;20658;45.630;8.886;2022-10-22T11:29:31;22.20;83.50
34406;DHT22;20658;45.630;8.886;2022-10-22T11:32:13;22.30;82.10
34406;DHT22;20658;45.630;8.886;2022-10-22T11:34:52;22.10;82.60
34406;DHT22;20658;45.630;8.886;2022-10-22T11:37:31;22.20;82.80
34406;DHT22;20658;45.630;8.886;2022-10-22T11:40:07;22.20;81.70
34406;DHT22;20658;45.630;8.886;2022-10-22T11:42:49;22.50;83.10
34406;DHT22;20658;45.630;8.886;2022-10-22T11:45:28;22.90;82.20
34406;DHT22;20658;45.630;8.886;2022-10-22T11:48:15;23.30;81.40
34406;DHT22;20658;45.630;8.886;2022-10-22T11:50:51;23.30;80.10
34406;DHT22;20658;45.630;8.886;2022-10-22T11:53:30;23.30;78.00
34406;DHT22;20658;45.630;8.886;2022-10-22T11:56:22;23.20;79.00
34406;DHT22;20658;45.630;8.886;2022-10-22T11:58:58;23.40;78.30
34406;DHT22;20658;45.630;8.886;2022-10-22T12:01:41;23.20;77.40
34406;DHT22;20658;45.630;8.886;2022-10-22T12:04:17;23.00;79.30
34406;DHT22;20658;45.630;8.886;2022-10-22T12:06:56;23.10;80.30
34406;DHT22;20658;45.630;8.886;2022-10-22T12:09:39;23.30;77.70
34406;DHT22;20658;45.630;8.886;2022-10-22T12:12:13;23.40;76.80
34406;DHT22;20658;45.630;8.886;2022-10-22T12:14:54;23.50;76.60
34406;DHT22;20658;45.630;8.886;2022-10-22T12:17:30;23.80;76.10
34406;DHT22;20658;45.630;8.886;2022-10-22T12:20:10;23.80;75.30
34406;DHT22;20658;45.630;8.886;2022-10-22T12:22:45;22.80;76.50
34406;DHT22;20658;45.630;8.886;2022-10-22T12:25:22;22.70;78.90
34406;DHT22;20658;45.630;8.886;2022-10-22T12:27:57;22.60;78.50
34406;DHT22;20658;45.630;8.886;2022-10-22T12:30:33;22.50;80.50
34406;DHT22;20658;45.630;8.886;2022-10-22T12:33:15;22.30;80.00
34406;DHT22;20658;45.630;8.886;2022-10-22T12:35:53;22.30;79.80
34406;DHT22;20658;45.630;8.886;2022-10-22T12:38:28;22.20;80.70
34406;DHT22;20658;45.630;8.886;2022-10-22T12:41:01;22.20;79.70
34406;DHT22;20658;45.630;8.886;2022-10-22T12:43:36;22.30;80.90
34406;DHT22;20658;45.630;8.886;2022-10-22T12:46:13;22.10;80.80
34406;DHT22;20658;45.630;8.886;2022-10-22T12:48:48;21.90;82.00
34406;DHT22;20658;45.630;8.886;2022-10-22T12:51:21;21.80;82.70
34406;DHT22;20658;45.630;8.886;2022-10-22T12:53:58;21.80;83.30
34406;DHT22;20658;45.630;8.886;2022-10-22T12:56:36;21.70;83.30
34406;DHT22;20658;45.630;8.886;2022-10-22T12:59:16;21.60;84.20
34406;DHT22;20658;45.630;8.886;2022-10-22T13:01:54;21.70;83.90
34406;DHT22;20658;45.630;8.886;2022-10-22T13:04:33;21.60;83.40
34406;DHT22;20658;45.630;8.886;2022-10-22T13:07:18;21.50;83.40
34406;DHT22;20658;45.630;8.886;2022-10-22T13:09:57;21.40;84.10
34406;DHT22;20658;45.630;8.886;2022-10-22T13:12:35;21.50;83.80
34406;DHT22;20658;45.630;8.886;2022-10-22T13:15:20;21.70;83.10
34406;DHT22;20658;45.630;8.886;2022-10-22T13:18:13;22.00;82.10
34406;DHT22;20658;45.630;8.886;2022-10-22T13:20:51;22.20;80.70
34406;DHT22;20658;45.630;8.886;2022-10-22T13:23:26;22.10;81.10
34406;DHT22;20658;45.630;8.886;2022-10-22T13:26:03;22.40;80.70
34406;DHT22;20658;45.630;8.886;2022-10-22T13:28:50;22.40;78.70
34406;DHT22;20658;45.630;8.886;2022-10-22T13:31:25;22.40;78.00
34406;DHT22;20658;45.630;8.886;2022-10-22T13:34:03;22.20;78.60
34406;DHT22;20658;45.630;8.886;2022-10-22T13:36:40;22.10;79.90
34406;DHT22;20658;45.630;8.886;2022-10-22T13:39:15;22.00;81.20
34406;DHT22;20658;45.630;8.886;2022-10-22T13:41:50;21.80;82.50
34406;DHT22;20658;45.630;8.886;2022-10-22T13:44:24;21.70;83.30
34406;DHT22;20658;45.630;8.886;2022-10-22T13:46:57;21.60;83.90
34406;DHT22;20658;45.630;8.886;2022-10-22T13:49:31;21.50;84.20
34406;DHT22;20658;45.630;8.886;2022-10-22T13:52:05;21.40;84.50
34406;DHT22;20658;45.630;8.886;2022-10-22T13:54:53;21.50;84.60
34406;DHT22;20658;45.630;8.886;2022-10-22T13:57:26;21.50;84.00
34406;DHT22;20658;45.630;8.886;2022-10-22T14:00:00;21.30;84.60
34406;DHT22;20658;45.630;8.886;2022-10-22T14:02:38;21.20;84.60
34406;DHT22;20658;45.630;8.886;2022-10-22T14:05:13;21.10;84.60
34406;DHT22;20658;45.630;8.886;2022-10-22T14:07:48;21.00;84.80
34406;DHT22;20658;45.630;8.886;2022-10-22T14:10:23;21.00;85.90
34406;DHT22;20658;45.630;8.886;2022-10-22T14:12:57;21.00;86.00
34406;DHT22;20658;45.630;8.886;2022-10-22T14:15:30;20.90;86.10
34406;DHT22;20658;45.630;8.886;2022-10-22T14:18:05;20.90;86.30
34406;DHT22;20658;45.630;8.886;2022-10-22T14:20:41;20.90;86.90
34406;DHT22;20658;45.630;8.886;2022-10-22T14:23:18;20.90;87.10
34406;DHT22;20658;45.630;8.886;2022-10-22T14:25:52;20.90;87.30
34406;DHT22;20658;45.630;8.886;2022-10-22T14:28:26;20.90;87.40
34406;DHT22;20658;45.630;8.886;2022-10-22T14:31:00;20.90;87.70
34406;DHT22;20658;45.630;8.886;2022-10-22T14:33:33;20.90;87.70
34406;DHT22;20658;45.630;8.886;2022-10-22T14:36:11;20.90;87.80
34406;DHT22;20658;45.630;8.886;2022-10-22T14:38:46;20.80;88.00
34406;DHT22;20658;45.630;8.886;2022-10-22T14:41:21;20.80;88.30
34406;DHT22;20658;45.630;8.886;2022-10-22T14:43:55;20.80;88.50
34406;DHT22;20658;45.630;8.886;2022-10-22T14:46:30;20.80;88.70
34406;DHT22;20658;45.630;8.886;2022-10-22T14:49:03;20.70;88.90
34406;DHT22;20658;45.630;8.886;2022-10-22T14:51:39;20.80;88.70
34406;DHT22;20658;45.630;8.886;2022-10-22T14:54:13;20.80;88.70
34406;DHT22;20658;45.630;8.886;2022-10-22T14:56:47;20.80;88.90
34406;DHT22;20658;45.630;8.886;2022-10-22T14:59:21;20.80;89.20
34406;DHT22;20658;45.630;8.886;2022-10-22T15:01:55;20.70;89.20
34406;DHT22;20658;45.630;8.886;2022-10-22T15:04:28;20.70;89.60
34406;DHT22;20658;45.630;8.886;2022-10-22T15:07:03;20.80;89.70
34406;DHT22;20658;45.630;8.886;2022-10-22T15:09:37;20.90;89.50
34406;DHT22;20658;45.630;8.886;2022-10-22T15:12:10;21.00;89.10
34406;DHT22;20658;45.630;8.886;2022-10-22T15:14:43;21.00;88.80
34406;DHT22;20658;45.630;8.886;2022-10-22T15:17:17;21.00;88.50
34406;DHT22;20658;45.630;8.886;2022-10-22T15:19:50;21.00;88.50
34406;DHT22;20658;45.630;8.886;2022-10-22T15:22:26;21.00;88.50
34406;DHT22;20658;45.630;8.886;2022-10-22T15:24:59;20.90;89.00
34406;DHT22;20658;45.630;8.886;2022-10-22T15:27:33;20.90;89.00
34406;DHT22;20658;45.630;8.886;2022-10-22T15:30:07;20.70;88.90
34406;DHT22;20658;45.630;8.886;2022-10-22T15:32:41;20.60;89.30
34406;DHT22;20658;45.630;8.886;2022-10-22T15:35:14;20.60;89.50
34406;DHT22;20658;45.630;8.886;2022-10-22T15:37:51;20.60;89.60
34406;DHT22;20658;45.630;8.886;2022-10-22T15:40:24;20.60;89.90
34406;DHT22;20658;45.630;8.886;2022-10-22T15:42:57;20.50;90.40
34406;DHT22;20658;45.630;8.886;2022-10-22T15:45:31;20.40;90.60
34406;DHT22;20658;45.630;8.886;2022-10-22T15:48:04;20.40;90.80
34406;DHT22;20658;45.630;8.886;2022-10-22T15:50:38;20.30;91.10
34406;DHT22;20658;45.630;8.886;2022-10-22T15:53:12;20.30;91.40
34406;DHT22;20658;45.630;8.886;2022-10-22T15:55:47;20.30;91.50
34406;DHT22;20658;45.630;8.886;2022-10-22T15:58:21;20.30;91.90
34406;DHT22;20658;45.630;8.886;2022-10-22T16:00:55;20.20;92.00
34406;DHT22;20658;45.630;8.886;2022-10-22T16:03:28;20.10;92.70
34406;DHT22;20658;45.630;8.886;2022-10-22T16:06:01;20.00;93.00
34406;DHT22;20658;45.630;8.886;2022-10-22T16:08:37;19.90;93.20
34406;DHT22;20658;45.630;8.886;2022-10-22T16:11:11;19.90;94.00
34406;DHT22;20658;45.630;8.886;2022-10-22T16:13:44;19.80;94.70
34406;DHT22;20658;45.630;8.886;2022-10-22T16:16:18;19.70;94.80
34406;DHT22;20658;45.630;8.886;2022-10-22T16:18:51;19.60;95.40
34406;DHT22;20658;45.630;8.886;2022-10-22T16:21:25;19.50;96.40
34406;DHT22;20658;45.630;8.886;2022-10-22T16:23:55;19.40;96.40
34406;DHT22;20658;45.630;8.886;2022-10-22T16:26:28;19.40;96.20
34406;DHT22;20658;45.630;8.886;2022-10-22T16:29:02;19.30;97.00